Time;durP1;ratioP1;P1;durP2;ratioP2;P2;SDS_P1;SDS_P2;PMS_P1;PMS_P2;Temp;Humidity;BMP_temperature;BMP_pressure;BME280_temperature;BME280_humidity;BME280_pressure;Samples;Min_cycle;Max_cycle;Signal;HPM_P1;HPM_P2
2022/03/04 00:00:42;;;;;;;35.37;23.87;;;-0.80;99.90;;;;;;4966357;28;20827;-77
2022/03/04 00:03:11;;;;;;;38.30;23.63;;;-0.90;99.90;;;;;;4991491;28;20515;-76
2022/03/04 00:05:37;;;;;;;29.93;22.17;;;-0.90;99.90;;;;;;4987426;28;20819;-75
2022/03/04 00:08:05;;;;;;;30.63;22.63;;;-1.00;99.90;;;;;;4989933;28;20930;-76
2022/03/04 00:10:33;;;;;;;30.77;23.83;;;-1.00;99.90;;;;;;4985705;28;20491;-76
2022/03/04 00:13:00;;;;;;;30.70;23.10;;;-1.10;99.90;;;;;;4985930;28;20888;-76
2022/03/04 00:15:28;;;;;;;32.60;22.27;;;-1.10;99.90;;;;;;4985331;28;20424;-75
2022/03/04 00:17:55;;;;;;;31.77;23.17;;;-1.20;99.90;;;;;;4992854;28;20447;-75
2022/03/04 00:20:22;;;;;;;30.10;22.67;;;-1.20;99.90;;;;;;4985644;28;20435;-75
2022/03/04 00:22:49;;;;;;;29.83;21.70;;;-1.20;99.90;;;;;;4993587;28;20495;-75
2022/03/04 00:25:16;;;;;;;29.63;21.63;;;-1.20;99.90;;;;;;4985434;28;20493;-75
2022/03/04 00:27:44;;;;;;;32.43;23.17;;;-1.20;99.90;;;;;;4993025;28;20455;-77
2022/03/04 00:30:12;;;;;;;30.97;22.63;;;-1.20;99.90;;;;;;4971021;28;20451;-77
2022/03/04 00:32:39;;;;;;;33.80;22.53;;;-1.10;99.90;;;;;;4987272;28;20449;-77
2022/03/04 00:35:07;;;;;;;29.57;22.27;;;-1.10;99.90;;;;;;4986041;28;20504;-77
2022/03/04 00:37:34;;;;;;;31.80;23.00;;;-1.10;99.90;;;;;;4967543;28;20456;-75
2022/03/04 00:40:01;;;;;;;29.40;22.30;;;-1.10;99.90;;;;;;4968623;28;20532;-76
2022/03/04 00:42:28;;;;;;;31.93;22.37;;;-1.30;99.90;;;;;;4988495;28;20438;-76
2022/03/04 00:44:56;;;;;;;29.13;21.77;;;-1.40;99.90;;;;;;4971620;28;20545;-78
2022/03/04 00:47:23;;;;;;;29.43;22.87;;;-1.40;99.90;;;;;;4974524;28;20457;-76
2022/03/04 00:49:50;;;;;;;26.47;20.63;;;-1.50;99.90;;;;;;4988925;28;20499;-75
2022/03/04 00:52:17;;;;;;;28.40;22.37;;;-1.50;99.90;;;;;;4984627;28;20443;-76
2022/03/04 00:54:44;;;;;;;27.17;21.47;;;-1.50;99.90;;;;;;4984850;28;20498;-75
2022/03/04 00:57:11;;;;;;;27.00;20.67;;;-1.50;99.90;;;;;;4983559;28;20448;-75
2022/03/04 00:59:38;;;;;;;24.27;19.93;;;-1.50;99.90;;;;;;4970641;28;20478;-75
2022/03/04 01:02:06;;;;;;;25.73;19.70;;;-1.60;99.90;;;;;;4989600;28;20444;-75
2022/03/04 01:04:33;;;;;;;29.83;21.40;;;-1.70;99.90;;;;;;4991445;28;20467;-76
2022/03/04 01:06:59;;;;;;;25.57;20.30;;;-1.70;99.90;;;;;;4973816;28;20507;-76
2022/03/04 01:09:26;;;;;;;32.17;22.13;;;-1.70;99.90;;;;;;4971197;28;20465;-76
2022/03/04 01:11:53;;;;;;;28.87;20.00;;;-1.60;99.90;;;;;;4968081;28;20457;-77
2022/03/04 01:14:20;;;;;;;25.50;20.07;;;-1.70;99.90;;;;;;4985040;28;20481;-77
2022/03/04 01:16:47;;;;;;;25.97;20.43;;;-1.70;99.90;;;;;;4975376;28;20804;-78
2022/03/04 01:19:15;;;;;;;25.43;19.73;;;-1.80;99.90;;;;;;4988473;28;20527;-76
2022/03/04 01:21:42;;;;;;;26.13;19.97;;;-1.80;99.90;;;;;;4987157;28;20452;-76
2022/03/04 01:24:10;;;;;;;29.10;20.40;;;-1.80;99.90;;;;;;4984949;28;20815;-77
2022/03/04 01:26:37;;;;;;;27.97;19.27;;;-1.80;99.90;;;;;;4970488;28;20548;-77
2022/03/04 01:29:04;;;;;;;25.13;20.10;;;-1.90;99.90;;;;;;4972244;28;20453;-77
2022/03/04 01:31:31;;;;;;;27.37;20.50;;;-1.90;99.90;;;;;;4967343;28;20512;-76
2022/03/04 01:33:57;;;;;;;29.23;20.67;;;-1.90;99.90;;;;;;4971400;28;20477;-76
2022/03/04 01:36:30;;;;;;;29.97;21.87;;;-2.00;99.90;;;;;;4967055;28;20459;-77
2022/03/04 01:38:57;;;;;;;29.70;21.03;;;-1.90;99.90;;;;;;4984779;28;20516;-77
2022/03/04 01:41:24;;;;;;;26.97;19.67;;;-2.00;99.90;;;;;;4974489;28;20549;-77
2022/03/04 01:43:51;;;;;;;25.43;20.17;;;-2.00;99.90;;;;;;4993026;28;20463;-76
2022/03/04 01:46:19;;;;;;;27.40;19.93;;;-1.90;99.90;;;;;;4990265;28;20507;-79
2022/03/04 01:48:47;;;;;;;25.83;19.93;;;-1.90;99.90;;;;;;4984479;28;20433;-77
2022/03/04 01:51:14;;;;;;;26.13;20.03;;;-2.00;99.90;;;;;;4989680;28;20495;-78
2022/03/04 01:53:43;;;;;;;30.03;21.43;;;-2.00;99.90;;;;;;4986594;28;20456;-76
2022/03/04 01:56:10;;;;;;;26.33;19.17;;;-2.00;99.90;;;;;;4967756;28;20698;-77
2022/03/04 01:58:37;;;;;;;28.30;21.03;;;-2.10;99.90;;;;;;4983865;28;20506;-76
2022/03/04 02:01:05;;;;;;;28.10;20.43;;;-2.00;99.90;;;;;;4967584;28;20450;-77
2022/03/04 02:03:32;;;;;;;28.77;21.00;;;-2.00;99.90;;;;;;4989125;28;20453;-76
2022/03/04 02:05:59;;;;;;;27.17;20.10;;;-2.00;99.90;;;;;;4971884;28;20460;-77
2022/03/04 02:08:26;;;;;;;24.13;19.53;;;-2.10;99.90;;;;;;4985146;28;20437;-76
2022/03/04 02:10:54;;;;;;;27.63;19.93;;;-2.10;99.90;;;;;;4992828;28;20503;-77
2022/03/04 02:13:21;;;;;;;24.67;18.73;;;-2.20;99.90;;;;;;4988558;28;20464;-78
2022/03/04 02:15:48;;;;;;;26.40;20.03;;;-2.10;99.90;;;;;;4988357;28;20933;-77
2022/03/04 02:18:17;;;;;;;28.23;20.03;;;-2.00;99.90;;;;;;4988121;28;20437;-78
2022/03/04 02:20:47;;;;;;;25.27;19.73;;;-2.00;99.90;;;;;;4991408;28;20460;-77
2022/03/04 02:23:16;;;;;;;26.53;20.03;;;-2.10;99.90;;;;;;4993636;28;20460;-76
2022/03/04 02:25:44;;;;;;;29.77;21.57;;;-2.10;99.90;;;;;;4990768;28;20461;-77
2022/03/04 02:28:11;;;;;;;28.70;20.53;;;-2.10;99.90;;;;;;4987547;28;20444;-77
2022/03/04 02:30:38;;;;;;;33.40;21.50;;;-2.10;99.90;;;;;;4971318;28;20432;-77
2022/03/04 02:33:06;;;;;;;26.30;20.13;;;-2.20;99.90;;;;;;5003238;28;20465;-76
2022/03/04 02:35:34;;;;;;;29.57;19.97;;;-2.20;99.90;;;;;;4974530;28;20452;-76
2022/03/04 02:38:01;;;;;;;25.13;19.40;;;-2.30;99.90;;;;;;4993201;28;20506;-76
2022/03/04 02:40:29;;;;;;;29.20;22.00;;;-2.30;99.90;;;;;;4987151;28;20480;-77
2022/03/04 02:42:56;;;;;;;26.87;20.00;;;-2.30;99.90;;;;;;4996458;28;20459;-77
2022/03/04 02:45:23;;;;;;;28.97;19.23;;;-2.40;99.90;;;;;;4987826;28;20440;-77
2022/03/04 02:47:50;;;;;;;26.40;20.40;;;-2.40;99.90;;;;;;4969878;28;20962;-77
2022/03/04 02:50:17;;;;;;;30.97;20.80;;;-2.50;99.90;;;;;;4971094;28;20445;-77
2022/03/04 02:52:44;;;;;;;30.77;21.60;;;-2.40;99.90;;;;;;4990155;28;20461;-76
2022/03/04 02:55:12;;;;;;;29.17;20.03;;;-2.40;99.90;;;;;;4992704;28;20436;-78
2022/03/04 02:57:43;;;;;;;25.33;20.13;;;-2.50;99.90;;;;;;4987379;28;20790;-77
2022/03/04 03:00:12;;;;;;;29.50;20.33;;;-2.50;99.90;;;;;;4995102;28;20468;-77
2022/03/04 03:02:40;;;;;;;26.40;20.13;;;-2.50;99.90;;;;;;4970488;28;21169;-76
2022/03/04 03:05:07;;;;;;;29.30;21.60;;;-2.60;99.90;;;;;;4973802;28;20871;-76
2022/03/04 03:07:34;;;;;;;25.30;19.47;;;-2.50;99.90;;;;;;4969658;28;20452;-76
2022/03/04 03:10:01;;;;;;;25.37;19.43;;;-2.50;99.90;;;;;;4970674;28;20450;-77
2022/03/04 03:12:28;;;;;;;27.77;19.87;;;-2.50;99.90;;;;;;4971688;28;20821;-77
2022/03/04 03:14:56;;;;;;;31.20;22.90;;;-2.60;99.90;;;;;;4991586;28;20472;-77
2022/03/04 03:17:23;;;;;;;29.63;20.77;;;-2.60;99.90;;;;;;4986678;28;20505;-77
2022/03/04 03:19:50;;;;;;;30.83;22.23;;;-2.60;99.90;;;;;;4969918;28;20476;-77
2022/03/04 03:22:18;;;;;;;27.10;21.03;;;-2.70;99.90;;;;;;4971334;28;20540;-78
2022/03/04 03:24:45;;;;;;;31.00;23.27;;;-2.70;99.90;;;;;;4987658;28;20436;-77
2022/03/04 03:27:12;;;;;;;29.23;20.97;;;-2.80;99.90;;;;;;4995264;28;20495;-77
2022/03/04 03:29:40;;;;;;;30.83;22.80;;;-2.80;99.90;;;;;;4973962;28;20452;-77
2022/03/04 03:32:10;;;;;;;31.33;21.87;;;-2.80;99.90;;;;;;4977240;28;20453;-81
2022/03/04 03:34:37;;;;;;;27.80;20.83;;;-2.90;99.90;;;;;;4991302;28;21027;-77
2022/03/04 03:37:04;;;;;;;31.80;22.20;;;-2.90;99.90;;;;;;4986939;28;20439;-77
2022/03/04 03:39:31;;;;;;;30.33;22.20;;;-2.90;99.90;;;;;;4991442;28;20509;-78
2022/03/04 03:41:58;;;;;;;28.10;21.20;;;-2.80;99.90;;;;;;4992021;28;20456;-78
2022/03/04 03:44:25;;;;;;;29.27;21.83;;;-2.90;99.90;;;;;;5002447;28;20467;-80
2022/03/04 03:46:52;;;;;;;33.93;22.67;;;-2.90;99.90;;;;;;5003685;28;20487;-79
2022/03/04 03:49:20;;;;;;;35.73;22.47;;;-2.90;99.90;;;;;;5003563;28;20442;-79
2022/03/04 03:51:47;;;;;;;31.47;22.10;;;-2.90;99.90;;;;;;5006600;28;20440;-80
2022/03/04 03:54:14;;;;;;;33.00;23.23;;;-2.90;99.90;;;;;;5011827;28;20452;-80
2022/03/04 03:56:40;;;;;;;34.73;24.27;;;-2.90;99.90;;;;;;4979581;28;20505;-80
2022/03/04 03:59:08;;;;;;;34.47;23.90;;;-3.00;99.90;;;;;;5004380;28;20472;-79
2022/03/04 04:01:35;;;;;;;32.60;23.90;;;-3.00;99.90;;;;;;5010090;28;20495;-81
2022/03/04 04:04:02;;;;;;;32.83;24.63;;;-2.90;99.90;;;;;;4993978;28;21044;-79
2022/03/04 04:06:30;;;;;;;35.47;22.73;;;-3.00;99.90;;;;;;4978795;28;20495;-81
2022/03/04 04:08:57;;;;;;;38.27;25.37;;;-3.00;99.90;;;;;;4999060;28;20440;-78
2022/03/04 04:11:24;;;;;;;33.70;24.40;;;-3.00;99.90;;;;;;4976343;28;20445;-78
2022/03/04 04:13:50;;;;;;;33.50;24.53;;;-3.00;99.90;;;;;;5009095;23;20509;-77
2022/03/04 04:16:17;;;;;;;34.90;23.83;;;-3.00;99.90;;;;;;5007219;28;20445;-78
2022/03/04 04:18:44;;;;;;;34.10;24.17;;;-3.10;99.90;;;;;;4997329;28;20457;-77
2022/03/04 04:21:11;;;;;;;33.63;24.23;;;-3.10;99.90;;;;;;5009768;28;20496;-77
2022/03/04 04:23:39;;;;;;;31.17;23.57;;;-3.10;99.90;;;;;;4987820;28;20452;-77
2022/03/04 04:26:08;;;;;;;36.63;24.27;;;-3.20;99.90;;;;;;4982194;28;20860;-77
2022/03/04 04:28:35;;;;;;;32.87;23.37;;;-3.20;99.90;;;;;;4982445;28;20794;-78
2022/03/04 04:31:03;;;;;;;31.50;22.83;;;-3.30;99.90;;;;;;4961579;28;20477;-78
2022/03/04 04:33:31;;;;;;;29.90;22.80;;;-3.30;99.90;;;;;;4970040;28;20489;-77
2022/03/04 04:35:58;;;;;;;32.20;23.87;;;-3.40;99.90;;;;;;4971868;28;20462;-78
2022/03/04 04:38:25;;;;;;;33.33;22.90;;;-3.40;99.90;;;;;;4963487;28;21053;-77
2022/03/04 04:40:53;;;;;;;29.73;22.77;;;-3.40;99.90;;;;;;4980527;28;20440;-77
2022/03/04 04:43:20;;;;;;;33.13;23.73;;;-3.40;99.90;;;;;;4982693;28;20467;-76
2022/03/04 04:45:47;;;;;;;31.93;21.63;;;-3.50;99.90;;;;;;4957377;28;21047;-74
2022/03/04 04:48:14;;;;;;;34.37;24.00;;;-3.50;99.90;;;;;;4973176;28;20452;-76
2022/03/04 04:50:41;;;;;;;34.53;23.83;;;-3.40;99.90;;;;;;4977246;28;20580;-76
2022/03/04 04:53:08;;;;;;;32.57;22.80;;;-3.40;99.90;;;;;;4963199;28;21107;-77
2022/03/04 04:55:35;;;;;;;32.77;23.67;;;-3.40;99.90;;;;;;4964119;28;20452;-77
2022/03/04 04:58:03;;;;;;;33.97;24.63;;;-3.30;99.90;;;;;;4980803;28;20977;-76
2022/03/04 05:00:30;;;;;;;34.33;23.27;;;-3.20;99.90;;;;;;4971198;28;20429;-77
2022/03/04 05:02:57;;;;;;;36.60;24.23;;;-3.30;99.90;;;;;;4981351;28;20454;-76
2022/03/04 05:05:24;;;;;;;32.97;23.00;;;-3.30;99.90;;;;;;4966641;28;20449;-76
2022/03/04 05:07:51;;;;;;;36.97;24.20;;;-3.30;99.90;;;;;;4982705;28;20472;-76
2022/03/04 05:10:18;;;;;;;31.60;24.53;;;-3.30;99.90;;;;;;4965372;28;20924;-78
2022/03/04 05:12:45;;;;;;;43.07;24.07;;;-3.30;99.90;;;;;;4984425;28;20440;-76
2022/03/04 05:15:13;;;;;;;37.77;24.43;;;-3.20;99.90;;;;;;4983519;28;20523;-76
2022/03/04 05:17:40;;;;;;;33.00;24.43;;;-3.30;99.90;;;;;;4960242;28;20445;-77
2022/03/04 05:20:07;;;;;;;32.47;24.03;;;-3.20;99.90;;;;;;4978390;28;20808;-77
2022/03/04 05:22:34;;;;;;;34.50;23.90;;;-3.20;99.90;;;;;;4981588;28;20445;-77
2022/03/04 05:25:01;;;;;;;33.97;24.60;;;-3.30;99.90;;;;;;4963680;28;20481;-77
2022/03/04 05:27:28;;;;;;;41.13;25.40;;;-3.30;99.90;;;;;;4982599;28;20536;-77
2022/03/04 05:29:55;;;;;;;33.60;23.30;;;-3.30;99.90;;;;;;4991062;28;20465;-78
2022/03/04 05:32:23;;;;;;;36.83;24.50;;;-3.30;99.90;;;;;;4974082;28;20453;-77
2022/03/04 05:34:50;;;;;;;34.90;24.30;;;-3.30;99.90;;;;;;4983581;28;20482;-77
2022/03/04 05:37:17;;;;;;;31.70;22.80;;;-3.30;99.90;;;;;;4986030;28;20496;-77
2022/03/04 05:39:43;;;;;;;37.37;24.63;;;-3.30;99.90;;;;;;4966441;28;20464;-78
2022/03/04 05:42:10;;;;;;;32.00;24.47;;;-3.40;99.90;;;;;;4965354;28;20460;-77
2022/03/04 05:44:37;;;;;;;29.17;22.37;;;-3.40;99.90;;;;;;4984303;28;20843;-78
2022/03/04 05:47:05;;;;;;;29.90;22.53;;;-3.40;99.90;;;;;;4983593;28;20440;-78
2022/03/04 05:49:33;;;;;;;30.03;23.83;;;-3.40;99.90;;;;;;4985019;28;20436;-78
2022/03/04 05:52:00;;;;;;;31.57;23.17;;;-3.50;99.90;;;;;;4983099;28;20435;-78
2022/03/04 05:54:26;;;;;;;30.30;22.20;;;-3.60;99.90;;;;;;4980916;28;20459;-78
2022/03/04 05:56:53;;;;;;;32.27;23.97;;;-3.60;99.90;;;;;;4980791;28;20437;-77
2022/03/04 05:59:20;;;;;;;29.13;22.07;;;-3.60;99.90;;;;;;4982695;28;20447;-78
2022/03/04 06:01:47;;;;;;;33.57;24.10;;;-3.60;99.90;;;;;;4978110;28;20950;-78
2022/03/04 06:04:14;;;;;;;30.53;23.80;;;-3.60;99.90;;;;;;4981680;28;20472;-76
2022/03/04 06:06:42;;;;;;;33.10;23.30;;;-3.60;99.90;;;;;;4980011;28;20438;-76
2022/03/04 06:09:09;;;;;;;31.07;21.20;;;-3.60;99.90;;;;;;4981599;28;20441;-77
2022/03/04 06:11:36;;;;;;;30.60;23.83;;;-3.60;99.90;;;;;;4976747;28;21114;-77
2022/03/04 06:14:03;;;;;;;35.70;24.73;;;-3.60;99.90;;;;;;4983491;28;20484;-76
2022/03/04 06:16:30;;;;;;;28.23;22.07;;;-3.60;99.90;;;;;;4961726;28;20463;-76
2022/03/04 06:18:57;;;;;;;30.53;21.97;;;-3.70;99.90;;;;;;4979927;28;20934;-77
2022/03/04 06:21:23;;;;;;;31.67;22.73;;;-3.50;99.90;;;;;;4982854;28;20446;-76
2022/03/04 06:23:52;;;;;;;29.83;22.87;;;-3.50;99.90;;;;;;4963276;28;20990;-77
2022/03/04 06:26:20;;;;;;;32.07;22.07;;;-3.50;99.90;;;;;;4984073;28;20527;-74
2022/03/04 06:28:47;;;;;;;29.77;22.57;;;-3.60;99.90;;;;;;4962884;28;20456;-77
2022/03/04 06:31:14;;;;;;;35.80;22.93;;;-3.50;99.90;;;;;;4969929;28;20476;-76
2022/03/04 06:33:42;;;;;;;27.13;20.83;;;-3.40;99.90;;;;;;4963528;28;21101;-76
2022/03/04 06:36:12;;;;;;;26.57;21.90;;;-3.40;99.90;;;;;;4968496;28;20460;-76
2022/03/04 06:38:41;;;;;;;31.07;22.50;;;-3.30;99.90;;;;;;4963481;28;20550;-77
2022/03/04 06:41:10;;;;;;;30.07;22.60;;;-3.10;99.90;;;;;;4960635;28;20449;-76
2022/03/04 06:43:38;;;;;;;29.43;22.73;;;-2.60;99.90;;;;;;4963287;28;20473;-77
2022/03/04 06:46:06;;;;;;;34.83;23.93;;;-2.20;99.90;;;;;;4963147;28;20479;-76
2022/03/04 06:48:34;;;;;;;35.17;24.50;;;-1.70;99.90;;;;;;4980297;28;20437;-76
2022/03/04 06:51:01;;;;;;;33.50;24.47;;;-1.60;99.90;;;;;;4957996;28;20477;-76
2022/03/04 06:53:28;;;;;;;37.57;23.90;;;-1.20;99.90;;;;;;4954004;28;20477;-76
2022/03/04 06:55:55;;;;;;;32.33;23.80;;;-0.80;99.90;;;;;;4977796;28;20433;-77
2022/03/04 06:58:23;;;;;;;29.00;22.80;;;-0.50;99.90;;;;;;4977599;28;20500;-77
2022/03/04 07:00:50;;;;;;;32.13;23.53;;;-0.40;99.90;;;;;;4984253;28;20487;-77
2022/03/04 07:03:17;;;;;;;30.07;23.07;;;-0.30;99.90;;;;;;4967357;28;20858;-77
2022/03/04 07:05:45;;;;;;;32.33;23.57;;;-0.10;99.90;;;;;;4984409;28;20445;-77
2022/03/04 07:08:13;;;;;;;30.73;22.87;;;0.10;99.90;;;;;;4981067;28;20802;-76
2022/03/04 07:10:40;;;;;;;32.10;23.83;;;0.50;99.90;;;;;;4984602;28;20474;-78
2022/03/04 07:13:08;;;;;;;33.20;23.90;;;0.70;99.90;;;;;;4967228;28;20450;-76
2022/03/04 07:15:36;;;;;;;29.80;23.07;;;1.00;99.90;;;;;;4984929;28;20440;-77
2022/03/04 07:18:03;;;;;;;29.80;23.43;;;1.20;99.90;;;;;;4961873;28;20495;-77
2022/03/04 07:20:30;;;;;;;29.43;23.53;;;1.30;99.90;;;;;;4985455;28;20429;-77
2022/03/04 07:22:57;;;;;;;31.73;23.03;;;1.90;99.90;;;;;;4965949;28;20443;-77
2022/03/04 07:25:24;;;;;;;28.13;21.13;;;2.20;99.90;;;;;;4967805;28;20464;-77
2022/03/04 07:27:51;;;;;;;28.83;22.73;;;2.60;99.90;;;;;;4965234;28;20691;-77
2022/03/04 07:30:18;;;;;;;26.50;22.77;;;2.80;99.90;;;;;;4978795;28;20555;-77
2022/03/04 07:32:46;;;;;;;27.93;22.37;;;2.90;99.90;;;;;;4980966;28;20265;-77
2022/03/04 07:35:14;;;;;;;30.53;24.17;;;2.80;99.90;;;;;;4984356;28;20571;-77
2022/03/04 07:37:42;;;;;;;25.47;22.47;;;2.60;99.90;;;;;;4967132;28;20197;-77
2022/03/04 07:40:11;;;;;;;30.10;23.37;;;2.50;99.90;;;;;;4983889;28;20249;-77
2022/03/04 07:42:39;;;;;;;26.83;22.30;;;2.40;99.90;;;;;;4980028;28;20289;-77
2022/03/04 07:45:08;;;;;;;29.13;22.73;;;2.50;99.90;;;;;;4986265;28;20220;-77
2022/03/04 07:47:35;;;;;;;26.53;22.10;;;2.90;99.90;;;;;;4980996;28;20204;-77
2022/03/04 07:50:04;;;;;;;27.47;22.83;;;3.30;99.90;;;;;;4979766;28;20205;-77
2022/03/04 07:52:32;;;;;;;29.10;23.13;;;3.50;99.90;;;;;;4973643;28;20197;-77
2022/03/04 07:55:00;;;;;;;31.07;21.40;;;4.10;99.90;;;;;;4965073;28;20642;-76
2022/03/04 07:57:26;;;;;;;26.70;20.83;;;4.20;99.90;;;;;;4984925;28;20190;-77
2022/03/04 07:59:53;;;;;;;25.67;19.17;;;4.60;99.90;;;;;;4983534;28;20202;-78
2022/03/04 08:02:20;;;;;;;28.00;18.37;;;4.80;99.90;;;;;;4966782;28;20742;-78
2022/03/04 08:04:47;;;;;;;24.30;16.27;;;5.30;99.90;;;;;;4968184;28;20225;-76
2022/03/04 08:07:17;;;;;;;22.40;16.13;;;5.70;99.90;;;;;;4972894;28;20212;-77
2022/03/04 08:09:43;;;;;;;23.80;17.43;;;6.00;99.90;;;;;;4965274;28;20195;-78
2022/03/04 08:12:12;;;;;;;24.97;17.07;;;6.30;99.90;;;;;;4965894;28;20267;-78
2022/03/04 08:14:39;;;;;;;23.10;16.10;;;6.10;99.90;;;;;;4974763;28;20294;-78
2022/03/04 08:17:05;;;;;;;28.03;19.33;;;6.60;99.90;;;;;;4965642;28;20235;-77
2022/03/04 08:19:33;;;;;;;26.10;20.73;;;6.60;99.90;;;;;;4978515;28;20200;-77
2022/03/04 08:22:00;;;;;;;22.57;18.90;;;6.70;99.90;;;;;;4969672;28;20625;-78
2022/03/04 08:24:28;;;;;;;23.33;17.93;;;7.10;99.90;;;;;;4985135;28;20228;-78
2022/03/04 08:26:54;;;;;;;25.87;19.33;;;7.20;99.90;;;;;;4964295;28;20204;-78
2022/03/04 08:29:21;;;;;;;25.50;21.30;;;7.10;99.90;;;;;;4984220;28;20595;-78
2022/03/04 08:31:48;;;;;;;23.40;19.90;;;6.80;99.90;;;;;;4982069;28;20614;-77
2022/03/04 08:34:15;;;;;;;25.43;16.50;;;6.80;99.90;;;;;;4962193;28;20226;-78
2022/03/04 08:36:42;;;;;;;23.73;18.80;;;6.80;99.90;;;;;;4984533;28;20195;-78
2022/03/04 08:39:09;;;;;;;25.93;19.87;;;6.80;99.90;;;;;;4960270;28;20269;-78
2022/03/04 08:41:38;;;;;;;26.70;20.20;;;6.60;99.90;;;;;;4963647;28;20581;-78
2022/03/04 08:44:05;;;;;;;24.10;19.00;;;6.60;99.90;;;;;;4981943;28;20975;-77
2022/03/04 08:46:32;;;;;;;22.40;16.93;;;6.80;99.90;;;;;;4966378;28;20204;-78
2022/03/04 08:48:59;;;;;;;25.13;18.70;;;6.80;99.90;;;;;;4981688;28;20196;-78
2022/03/04 08:51:27;;;;;;;25.60;19.40;;;6.80;99.90;;;;;;4983970;28;20213;-78
2022/03/04 08:53:54;;;;;;;27.23;20.00;;;6.80;99.90;;;;;;4961028;28;20275;-78
2022/03/04 08:56:21;;;;;;;23.30;19.43;;;7.10;99.90;;;;;;4987744;28;20197;-76
2022/03/04 08:58:50;;;;;;;23.77;18.67;;;7.20;99.90;;;;;;4987560;28;20260;-76
2022/03/04 09:01:17;;;;;;;26.43;19.47;;;7.30;99.90;;;;;;4984298;28;20232;-77
2022/03/04 09:03:45;;;;;;;27.53;18.87;;;7.20;99.90;;;;;;4980806;28;20693;-77
2022/03/04 09:06:12;;;;;;;22.90;16.73;;;7.20;99.90;;;;;;4973618;28;20217;-78
2022/03/04 09:08:39;;;;;;;22.63;16.87;;;7.40;99.90;;;;;;4981783;28;20282;-78
2022/03/04 09:11:06;;;;;;;22.80;16.37;;;7.30;99.90;;;;;;4981816;28;20236;-78
2022/03/04 09:13:33;;;;;;;23.13;16.17;;;7.40;99.90;;;;;;4982880;28;20229;-78
2022/03/04 09:16:02;;;;;;;19.40;14.90;;;7.30;99.90;;;;;;4965369;28;20671;-77
2022/03/04 09:18:29;;;;;;;24.13;16.53;;;7.50;99.90;;;;;;4974767;28;20240;-78
2022/03/04 09:20:56;;;;;;;23.60;16.70;;;7.60;99.90;;;;;;4960315;28;20209;-78
2022/03/04 09:23:22;;;;;;;22.80;15.80;;;7.60;99.90;;;;;;4980969;28;20220;-78
2022/03/04 09:25:51;;;;;;;22.20;16.90;;;7.70;99.90;;;;;;4980953;28;20198;-78
2022/03/04 09:28:19;;;;;;;25.80;17.07;;;8.00;99.90;;;;;;4980667;28;20197;-77
2022/03/04 09:30:45;;;;;;;22.67;17.63;;;8.20;99.90;;;;;;4981992;28;20207;-78
2022/03/04 09:33:14;;;;;;;24.40;19.17;;;8.10;99.90;;;;;;4984334;28;20280;-78
2022/03/04 09:35:40;;;;;;;24.07;18.87;;;8.00;99.90;;;;;;4981012;28;20200;-78
2022/03/04 09:38:07;;;;;;;24.23;17.87;;;8.10;99.90;;;;;;4984038;28;20261;-78
2022/03/04 09:40:34;;;;;;;24.20;18.70;;;7.80;99.90;;;;;;4984658;28;20200;-77
2022/03/04 09:43:02;;;;;;;23.50;17.07;;;7.70;99.90;;;;;;4984034;28;20201;-78
2022/03/04 09:45:30;;;;;;;21.80;16.40;;;7.80;99.90;;;;;;4974819;28;20209;-78
2022/03/04 09:47:57;;;;;;;23.00;16.50;;;7.70;99.90;;;;;;4991348;28;20215;-78
2022/03/04 09:50:28;;;;;;;23.47;17.40;;;7.90;99.90;;;;;;4992539;28;20576;-78
2022/03/04 09:52:54;;;;;;;22.60;16.20;;;7.90;99.90;;;;;;4991955;28;20283;-78
2022/03/04 09:55:21;;;;;;;26.47;16.83;;;8.20;99.90;;;;;;4988212;28;20194;-78
2022/03/04 09:57:48;;;;;;;22.50;16.17;;;8.20;99.90;;;;;;4981763;28;20193;-78
2022/03/04 10:00:17;;;;;;;22.80;16.90;;;8.20;99.90;;;;;;4982327;28;20581;-78
2022/03/04 10:02:45;;;;;;;23.80;16.57;;;8.30;99.90;;;;;;4982026;28;20200;-77
2022/03/04 10:05:12;;;;;;;24.37;19.23;;;8.40;99.90;;;;;;4966250;28;20217;-77
2022/03/04 10:07:42;;;;;;;23.03;17.47;;;8.10;99.90;;;;;;4961782;28;20603;-77
2022/03/04 10:10:14;;;;;;;24.60;19.23;;;8.10;99.90;;;;;;4976960;28;20261;-77
2022/03/04 10:12:51;;;;;;;24.43;18.13;;;8.10;99.90;;;;;;4961589;28;20240;-78
2022/03/04 10:15:20;;;;;;;24.10;17.87;;;8.10;99.90;;;;;;4988600;23;20798;-75
2022/03/04 10:18:02;;;;;;;23.30;17.13;;;8.00;99.90;;;;;;4987020;28;20202;-75
2022/03/04 10:20:38;;;;;;;23.83;15.80;;;7.90;99.90;;;;;;4980771;28;20205;-75
2022/03/04 10:23:28;;;;;;;24.43;20.33;;;7.80;99.90;;;;;;4963307;28;20280;-75
2022/03/04 10:25:58;;;;;;;26.40;22.63;;;7.50;99.90;;;;;;4959262;28;20284;-75
2022/03/04 10:28:26;;;;;;;26.93;23.17;;;7.40;99.90;;;;;;4968302;28;20212;-75
2022/03/04 10:30:55;;;;;;;25.47;18.93;;;7.30;99.10;;;;;;4971119;28;20280;-75
2022/03/04 10:33:23;;;;;;;26.63;19.43;;;7.40;99.50;;;;;;4981854;28;20198;-75
2022/03/04 10:36:07;;;;;;;26.17;18.33;;;7.40;99.20;;;;;;4971564;28;20239;-75
2022/03/04 10:38:36;;;;;;;23.47;18.60;;;7.50;98.70;;;;;;4973951;28;20212;-76
2022/03/04 10:41:22;;;;;;;25.00;19.07;;;7.40;98.60;;;;;;4953428;28;20204;-75
2022/03/04 10:43:51;;;;;;;23.03;18.87;;;7.30;98.60;;;;;;4963368;28;20270;-75
2022/03/04 10:46:18;;;;;;;26.23;19.83;;;7.20;99.00;;;;;;4972485;28;20260;-75
2022/03/04 10:48:53;;;;;;;22.80;17.77;;;7.00;98.90;;;;;;4947005;29;20202;-75
2022/03/04 10:51:35;;;;;;;24.57;19.40;;;7.00;99.30;;;;;;4973283;28;20217;-76
2022/03/04 10:54:13;;;;;;;24.13;19.83;;;6.80;98.70;;;;;;4975813;28;20230;-77
2022/03/04 10:56:51;;;;;;;21.67;18.20;;;6.70;99.20;;;;;;4968944;28;20650;-76
2022/03/04 10:59:19;;;;;;;25.87;19.17;;;6.70;99.20;;;;;;4950609;28;20209;-77
2022/03/04 11:01:49;;;;;;;23.80;18.83;;;6.80;99.60;;;;;;4967461;28;20192;-77
2022/03/04 11:04:18;;;;;;;28.93;19.90;;;6.90;99.20;;;;;;4950306;28;20226;-77
2022/03/04 11:06:46;;;;;;;24.77;19.13;;;7.00;99.40;;;;;;4944368;28;20205;-77
2022/03/04 11:09:16;;;;;;;25.23;19.93;;;7.00;99.00;;;;;;4973060;28;20200;-77
2022/03/04 11:11:44;;;;;;;25.03;18.83;;;6.90;98.90;;;;;;4970603;28;20212;-76
2022/03/04 11:14:12;;;;;;;21.63;17.50;;;6.80;98.90;;;;;;4967542;28;20227;-77
2022/03/04 11:16:40;;;;;;;24.73;20.37;;;6.90;99.20;;;;;;4970742;28;20292;-77
2022/03/04 11:19:07;;;;;;;23.67;19.17;;;7.00;99.00;;;;;;4950523;28;20207;-78
2022/03/04 11:21:34;;;;;;;23.80;18.97;;;7.00;99.00;;;;;;4968303;28;20247;-78
2022/03/04 11:24:01;;;;;;;27.67;19.37;;;7.10;98.70;;;;;;4967900;28;20773;-78
2022/03/04 11:26:32;;;;;;;27.70;19.37;;;7.10;99.40;;;;;;4968561;28;20318;-77
2022/03/04 11:29:00;;;;;;;25.50;19.57;;;7.20;99.40;;;;;;4973072;28;20200;-77
2022/03/04 11:31:29;;;;;;;26.57;19.13;;;7.20;99.00;;;;;;4950632;28;20597;-77
2022/03/04 11:33:58;;;;;;;24.07;18.77;;;7.10;98.90;;;;;;4967532;28;20244;-76
2022/03/04 11:36:26;;;;;;;28.70;20.13;;;7.20;99.70;;;;;;4949250;28;20632;-77
2022/03/04 11:39:03;;;;;;;27.40;20.00;;;7.30;99.50;;;;;;4971311;28;20223;-77
2022/03/04 11:42:06;;;;;;;24.27;19.07;;;7.20;99.10;;;;;;4964650;28;20594;-77
2022/03/04 11:44:55;;;;;;;26.33;19.00;;;7.30;98.50;;;;;;4962792;28;20264;-77
2022/03/04 11:47:22;;;;;;;24.90;19.47;;;7.40;99.30;;;;;;4967190;28;21308;-76
2022/03/04 11:49:49;;;;;;;27.07;18.67;;;7.40;98.70;;;;;;4969397;28;20197;-77
2022/03/04 11:52:29;;;;;;;23.37;18.10;;;7.40;98.70;;;;;;4972649;28;20561;-77
2022/03/04 11:55:27;;;;;;;23.03;18.00;;;7.50;98.00;;;;;;4953070;28;20227;-77
2022/03/04 11:58:04;;;;;;;23.33;19.10;;;7.40;98.70;;;;;;4969876;28;20267;-77
2022/03/04 12:00:37;;;;;;;22.07;18.20;;;7.40;98.20;;;;;;4966976;28;20202;-78
2022/03/04 12:03:14;;;;;;;25.87;18.97;;;7.40;98.20;;;;;;4949129;28;20213;-76
2022/03/04 12:05:47;;;;;;;26.17;18.97;;;7.40;97.70;;;;;;4952895;28;20234;-76
2022/03/04 12:08:14;;;;;;;23.33;17.57;;;7.40;97.60;;;;;;4948753;28;20209;-77
2022/03/04 12:10:44;;;;;;;25.33;17.50;;;7.50;97.90;;;;;;4966388;28;20196;-76
2022/03/04 12:13:18;;;;;;;21.57;17.83;;;7.50;97.60;;;;;;4967143;28;20221;-76
2022/03/04 12:15:50;;;;;;;23.30;17.30;;;7.60;97.00;;;;;;4968704;28;20604;-77
2022/03/04 12:18:25;;;;;;;21.43;16.53;;;7.60;96.70;;;;;;4953549;28;20209;-77
2022/03/04 12:21:01;;;;;;;21.07;16.73;;;7.60;96.90;;;;;;4953370;28;20286;-77
2022/03/04 12:23:36;;;;;;;23.37;17.07;;;7.70;97.20;;;;;;4942627;28;20295;-77
2022/03/04 12:26:11;;;;;;;21.10;16.57;;;7.70;97.10;;;;;;4966428;28;20193;-77
2022/03/04 12:28:43;;;;;;;21.17;18.00;;;7.80;96.80;;;;;;4974131;28;20228;-76
2022/03/04 12:31:24;;;;;;;24.20;17.63;;;7.80;95.70;;;;;;4950571;28;20273;-78
2022/03/04 12:33:56;;;;;;;18.40;14.93;;;7.70;95.30;;;;;;4949342;28;20316;-78
2022/03/04 12:36:25;;;;;;;20.63;16.10;;;7.80;95.40;;;;;;4966785;28;20232;-77